Schedule Details


Flight Number: CTN471
Departure: Charles-de-gaulle (LFPG) at 18:30
Arrival: Franjo Tudman (LDZA) at 20:20
Route: LANVI UM164 EPL UN491 DEGES UN871 MADEB UN606 ELMEM UL607 GEDSO DCT VEKEN Y177 DEGUM DCT ARGOM

Weather Information
LFPG 251730Z 02004KT 320V070 CAVOK 30/10 Q1018 NOSIG
LDZA 251730Z 02005KT 360V060 9999 FEW038 26/19 Q1018 NOSIG
Schedule Frequency

Route Map